sensor_id;sensor_type;location;lat;lon;timestamp;P1;durP1;ratioP1;P2;durP2;ratioP2
22571;SDS011;11452;53.368;14.658;2023-08-08T00:00:18;5.97;;;2.40;;
22571;SDS011;11452;53.368;14.658;2023-08-08T00:05:24;3.97;;;2.50;;
22571;SDS011;11452;53.368;14.658;2023-08-08T00:10:30;4.23;;;1.90;;
22571;SDS011;11452;53.368;14.658;2023-08-08T00:15:36;7.57;;;2.10;;
22571;SDS011;11452;53.368;14.658;2023-08-08T00:20:41;6.47;;;2.30;;
22571;SDS011;11452;53.368;14.658;2023-08-08T00:25:47;5.10;;;2.43;;
22571;SDS011;11452;53.368;14.658;2023-08-08T00:30:53;5.37;;;2.17;;
22571;SDS011;11452;53.368;14.658;2023-08-08T00:35:59;4.70;;;2.43;;
22571;SDS011;11452;53.368;14.658;2023-08-08T00:41:05;4.70;;;2.00;;
22571;SDS011;11452;53.368;14.658;2023-08-08T00:46:11;3.90;;;1.90;;
22571;SDS011;11452;53.368;14.658;2023-08-08T00:51:17;3.63;;;2.20;;
22571;SDS011;11452;53.368;14.658;2023-08-08T00:56:24;4.40;;;2.33;;
22571;SDS011;11452;53.368;14.658;2023-08-08T01:01:30;3.50;;;1.90;;
22571;SDS011;11452;53.368;14.658;2023-08-08T01:06:43;4.73;;;2.17;;
22571;SDS011;11452;53.368;14.658;2023-08-08T01:12:08;3.87;;;2.13;;
22571;SDS011;11452;53.368;14.658;2023-08-08T01:17:16;6.20;;;1.70;;
22571;SDS011;11452;53.368;14.658;2023-08-08T01:22:27;5.47;;;2.10;;
22571;SDS011;11452;53.368;14.658;2023-08-08T01:27:35;5.00;;;1.57;;
22571;SDS011;11452;53.368;14.658;2023-08-08T01:32:41;4.50;;;1.83;;
22571;SDS011;11452;53.368;14.658;2023-08-08T01:37:51;3.63;;;1.57;;
22571;SDS011;11452;53.368;14.658;2023-08-08T01:43:01;2.90;;;1.40;;
22571;SDS011;11452;53.368;14.658;2023-08-08T01:48:08;2.47;;;1.03;;
22571;SDS011;11452;53.368;14.658;2023-08-08T01:53:14;3.93;;;1.67;;
22571;SDS011;11452;53.368;14.658;2023-08-08T01:58:21;4.80;;;1.83;;
22571;SDS011;11452;53.368;14.658;2023-08-08T02:03:26;4.97;;;1.87;;
22571;SDS011;11452;53.368;14.658;2023-08-08T02:08:32;7.07;;;1.80;;
22571;SDS011;11452;53.368;14.658;2023-08-08T02:13:38;4.70;;;1.20;;
22571;SDS011;11452;53.368;14.658;2023-08-08T02:18:44;4.30;;;1.53;;
22571;SDS011;11452;53.368;14.658;2023-08-08T02:23:50;1.63;;;1.40;;
22571;SDS011;11452;53.368;14.658;2023-08-08T02:28:55;4.37;;;1.73;;
22571;SDS011;11452;53.368;14.658;2023-08-08T02:34:01;5.83;;;1.90;;
22571;SDS011;11452;53.368;14.658;2023-08-08T02:39:07;3.57;;;1.93;;
22571;SDS011;11452;53.368;14.658;2023-08-08T02:44:13;2.00;;;1.33;;
22571;SDS011;11452;53.368;14.658;2023-08-08T02:49:19;4.57;;;2.13;;
22571;SDS011;11452;53.368;14.658;2023-08-08T02:54:25;4.60;;;1.60;;
22571;SDS011;11452;53.368;14.658;2023-08-08T02:59:31;5.37;;;1.90;;
22571;SDS011;11452;53.368;14.658;2023-08-08T03:04:38;2.63;;;1.63;;
22571;SDS011;11452;53.368;14.658;2023-08-08T03:09:44;2.83;;;1.57;;
22571;SDS011;11452;53.368;14.658;2023-08-08T03:14:50;4.83;;;1.40;;
22571;SDS011;11452;53.368;14.658;2023-08-08T03:19:56;4.03;;;1.23;;
22571;SDS011;11452;53.368;14.658;2023-08-08T03:25:02;6.90;;;1.60;;
22571;SDS011;11452;53.368;14.658;2023-08-08T03:30:10;2.87;;;1.30;;
22571;SDS011;11452;53.368;14.658;2023-08-08T03:35:17;2.17;;;1.10;;
22571;SDS011;11452;53.368;14.658;2023-08-08T03:40:23;3.27;;;1.47;;
22571;SDS011;11452;53.368;14.658;2023-08-08T03:45:29;1.73;;;1.23;;
22571;SDS011;11452;53.368;14.658;2023-08-08T03:50:35;3.20;;;1.50;;
22571;SDS011;11452;53.368;14.658;2023-08-08T03:55:41;2.27;;;1.57;;
22571;SDS011;11452;53.368;14.658;2023-08-08T04:00:47;2.10;;;1.40;;
22571;SDS011;11452;53.368;14.658;2023-08-08T04:05:53;4.40;;;1.43;;
22571;SDS011;11452;53.368;14.658;2023-08-08T04:10:59;3.20;;;1.53;;
22571;SDS011;11452;53.368;14.658;2023-08-08T04:16:05;3.17;;;1.50;;
22571;SDS011;11452;53.368;14.658;2023-08-08T04:21:11;4.90;;;1.50;;
22571;SDS011;11452;53.368;14.658;2023-08-08T04:26:16;3.17;;;1.80;;
22571;SDS011;11452;53.368;14.658;2023-08-08T04:31:22;2.53;;;1.37;;
22571;SDS011;11452;53.368;14.658;2023-08-08T04:36:29;4.87;;;1.60;;
22571;SDS011;11452;53.368;14.658;2023-08-08T04:41:36;3.83;;;1.50;;
22571;SDS011;11452;53.368;14.658;2023-08-08T04:46:42;2.10;;;1.50;;
22571;SDS011;11452;53.368;14.658;2023-08-08T04:51:47;2.17;;;1.27;;
22571;SDS011;11452;53.368;14.658;2023-08-08T04:56:53;1.50;;;1.40;;
22571;SDS011;11452;53.368;14.658;2023-08-08T05:02:00;3.47;;;1.57;;
22571;SDS011;11452;53.368;14.658;2023-08-08T05:07:05;3.23;;;1.67;;
22571;SDS011;11452;53.368;14.658;2023-08-08T05:12:11;4.17;;;1.70;;
22571;SDS011;11452;53.368;14.658;2023-08-08T05:17:17;2.07;;;1.33;;
22571;SDS011;11452;53.368;14.658;2023-08-08T05:22:23;3.03;;;1.37;;
22571;SDS011;11452;53.368;14.658;2023-08-08T05:27:28;1.67;;;1.30;;
22571;SDS011;11452;53.368;14.658;2023-08-08T05:32:34;2.73;;;1.50;;
22571;SDS011;11452;53.368;14.658;2023-08-08T05:37:40;2.33;;;1.60;;
22571;SDS011;11452;53.368;14.658;2023-08-08T05:42:48;3.50;;;1.50;;
22571;SDS011;11452;53.368;14.658;2023-08-08T05:47:53;2.40;;;1.37;;
22571;SDS011;11452;53.368;14.658;2023-08-08T05:53:00;2.30;;;1.40;;
22571;SDS011;11452;53.368;14.658;2023-08-08T05:58:06;2.30;;;1.50;;
22571;SDS011;11452;53.368;14.658;2023-08-08T06:03:12;3.60;;;1.47;;
22571;SDS011;11452;53.368;14.658;2023-08-08T06:08:17;3.30;;;2.00;;
22571;SDS011;11452;53.368;14.658;2023-08-08T06:13:23;2.30;;;1.53;;
22571;SDS011;11452;53.368;14.658;2023-08-08T06:18:29;2.70;;;1.60;;
22571;SDS011;11452;53.368;14.658;2023-08-08T06:23:35;5.03;;;1.43;;
22571;SDS011;11452;53.368;14.658;2023-08-08T06:28:41;2.50;;;1.30;;
22571;SDS011;11452;53.368;14.658;2023-08-08T06:33:46;3.93;;;1.50;;
22571;SDS011;11452;53.368;14.658;2023-08-08T06:38:52;1.63;;;1.40;;
22571;SDS011;11452;53.368;14.658;2023-08-08T06:43:58;2.33;;;1.33;;
22571;SDS011;11452;53.368;14.658;2023-08-08T06:49:04;3.10;;;1.30;;
22571;SDS011;11452;53.368;14.658;2023-08-08T06:54:11;4.47;;;1.60;;
22571;SDS011;11452;53.368;14.658;2023-08-08T06:59:16;2.97;;;1.40;;
22571;SDS011;11452;53.368;14.658;2023-08-08T07:04:23;1.93;;;1.23;;
22571;SDS011;11452;53.368;14.658;2023-08-08T07:09:30;3.27;;;1.53;;
22571;SDS011;11452;53.368;14.658;2023-08-08T07:14:36;1.67;;;1.30;;
22571;SDS011;11452;53.368;14.658;2023-08-08T07:19:42;3.03;;;1.20;;
22571;SDS011;11452;53.368;14.658;2023-08-08T07:24:49;2.17;;;1.63;;
22571;SDS011;11452;53.368;14.658;2023-08-08T07:29:55;3.30;;;1.53;;
22571;SDS011;11452;53.368;14.658;2023-08-08T07:35:01;2.20;;;1.10;;
22571;SDS011;11452;53.368;14.658;2023-08-08T07:40:13;5.60;;;1.60;;
22571;SDS011;11452;53.368;14.658;2023-08-08T07:45:21;3.57;;;1.60;;
22571;SDS011;11452;53.368;14.658;2023-08-08T07:50:28;3.60;;;1.40;;
22571;SDS011;11452;53.368;14.658;2023-08-08T07:55:34;3.00;;;1.60;;
22571;SDS011;11452;53.368;14.658;2023-08-08T08:00:39;5.40;;;1.60;;
22571;SDS011;11452;53.368;14.658;2023-08-08T08:05:45;2.70;;;1.17;;
22571;SDS011;11452;53.368;14.658;2023-08-08T08:10:51;1.77;;;1.33;;
22571;SDS011;11452;53.368;14.658;2023-08-08T08:15:57;4.27;;;1.23;;
22571;SDS011;11452;53.368;14.658;2023-08-08T08:21:03;4.30;;;1.47;;
22571;SDS011;11452;53.368;14.658;2023-08-08T08:26:09;1.70;;;1.40;;
22571;SDS011;11452;53.368;14.658;2023-08-08T08:31:16;2.87;;;1.27;;
22571;SDS011;11452;53.368;14.658;2023-08-08T08:36:21;1.67;;;1.27;;
22571;SDS011;11452;53.368;14.658;2023-08-08T08:41:29;1.97;;;1.30;;
22571;SDS011;11452;53.368;14.658;2023-08-08T08:46:36;3.60;;;1.70;;
22571;SDS011;11452;53.368;14.658;2023-08-08T08:51:43;3.77;;;1.33;;
22571;SDS011;11452;53.368;14.658;2023-08-08T08:56:49;2.17;;;1.17;;
22571;SDS011;11452;53.368;14.658;2023-08-08T09:01:56;2.20;;;1.30;;
22571;SDS011;11452;53.368;14.658;2023-08-08T09:07:05;1.67;;;1.00;;
22571;SDS011;11452;53.368;14.658;2023-08-08T09:12:12;1.13;;;1.07;;
22571;SDS011;11452;53.368;14.658;2023-08-08T09:17:19;1.97;;;1.23;;
22571;SDS011;11452;53.368;14.658;2023-08-08T09:22:27;2.10;;;1.40;;
22571;SDS011;11452;53.368;14.658;2023-08-08T09:27:33;1.30;;;1.20;;
22571;SDS011;11452;53.368;14.658;2023-08-08T09:32:40;1.47;;;1.00;;
22571;SDS011;11452;53.368;14.658;2023-08-08T09:37:47;1.43;;;1.33;;
22571;SDS011;11452;53.368;14.658;2023-08-08T09:42:53;1.43;;;1.10;;
22571;SDS011;11452;53.368;14.658;2023-08-08T09:48:00;1.87;;;1.00;;
22571;SDS011;11452;53.368;14.658;2023-08-08T09:53:06;2.03;;;1.20;;
22571;SDS011;11452;53.368;14.658;2023-08-08T09:58:13;2.40;;;0.90;;
22571;SDS011;11452;53.368;14.658;2023-08-08T10:03:21;3.63;;;1.10;;
22571;SDS011;11452;53.368;14.658;2023-08-08T10:08:47;1.20;;;0.90;;
22571;SDS011;11452;53.368;14.658;2023-08-08T10:13:54;1.03;;;0.80;;
22571;SDS011;11452;53.368;14.658;2023-08-08T10:19:01;2.13;;;1.10;;
22571;SDS011;11452;53.368;14.658;2023-08-08T10:24:08;1.13;;;1.00;;
22571;SDS011;11452;53.368;14.658;2023-08-08T10:29:17;3.23;;;1.00;;
22571;SDS011;11452;53.368;14.658;2023-08-08T10:34:27;1.50;;;1.00;;
22571;SDS011;11452;53.368;14.658;2023-08-08T10:39:53;3.53;;;1.20;;
22571;SDS011;11452;53.368;14.658;2023-08-08T10:45:02;1.10;;;1.00;;
22571;SDS011;11452;53.368;14.658;2023-08-08T10:50:09;2.07;;;1.13;;
22571;SDS011;11452;53.368;14.658;2023-08-08T10:55:24;1.23;;;1.00;;
22571;SDS011;11452;53.368;14.658;2023-08-08T11:00:32;1.33;;;0.70;;
22571;SDS011;11452;53.368;14.658;2023-08-08T11:05:47;2.90;;;1.10;;
22571;SDS011;11452;53.368;14.658;2023-08-08T11:10:54;1.57;;;1.10;;
22571;SDS011;11452;53.368;14.658;2023-08-08T11:16:00;0.97;;;0.87;;
22571;SDS011;11452;53.368;14.658;2023-08-08T11:21:10;2.10;;;1.30;;
22571;SDS011;11452;53.368;14.658;2023-08-08T11:26:17;1.23;;;1.10;;
22571;SDS011;11452;53.368;14.658;2023-08-08T11:31:23;1.53;;;1.40;;
22571;SDS011;11452;53.368;14.658;2023-08-08T11:36:31;2.17;;;1.40;;
22571;SDS011;11452;53.368;14.658;2023-08-08T11:41:38;1.20;;;1.10;;
22571;SDS011;11452;53.368;14.658;2023-08-08T11:46:45;1.70;;;1.33;;
22571;SDS011;11452;53.368;14.658;2023-08-08T11:51:53;2.30;;;1.00;;
22571;SDS011;11452;53.368;14.658;2023-08-08T11:57:00;1.20;;;1.10;;
22571;SDS011;11452;53.368;14.658;2023-08-08T12:02:06;4.37;;;2.00;;
22571;SDS011;11452;53.368;14.658;2023-08-08T12:07:12;1.10;;;1.03;;
22571;SDS011;11452;53.368;14.658;2023-08-08T12:12:19;2.07;;;1.20;;
22571;SDS011;11452;53.368;14.658;2023-08-08T12:17:25;4.30;;;1.20;;
22571;SDS011;11452;53.368;14.658;2023-08-08T12:22:31;2.50;;;1.13;;
22571;SDS011;11452;53.368;14.658;2023-08-08T12:27:38;1.63;;;1.10;;
22571;SDS011;11452;53.368;14.658;2023-08-08T12:32:43;2.00;;;1.33;;
22571;SDS011;11452;53.368;14.658;2023-08-08T12:37:49;1.30;;;1.20;;
22571;SDS011;11452;53.368;14.658;2023-08-08T12:42:56;2.63;;;1.40;;
22571;SDS011;11452;53.368;14.658;2023-08-08T12:48:01;2.37;;;1.10;;
22571;SDS011;11452;53.368;14.658;2023-08-08T12:53:07;1.40;;;1.30;;
22571;SDS011;11452;53.368;14.658;2023-08-08T12:58:13;2.63;;;1.10;;
22571;SDS011;11452;53.368;14.658;2023-08-08T13:03:19;1.90;;;1.00;;
22571;SDS011;11452;53.368;14.658;2023-08-08T13:08:25;0.93;;;0.80;;
22571;SDS011;11452;53.368;14.658;2023-08-08T13:13:31;3.77;;;1.10;;
22571;SDS011;11452;53.368;14.658;2023-08-08T13:18:36;2.27;;;1.40;;
22571;SDS011;11452;53.368;14.658;2023-08-08T13:23:42;1.67;;;0.67;;
22571;SDS011;11452;53.368;14.658;2023-08-08T13:28:48;0.70;;;0.70;;
22571;SDS011;11452;53.368;14.658;2023-08-08T13:33:53;3.23;;;0.70;;
22571;SDS011;11452;53.368;14.658;2023-08-08T13:38:59;1.93;;;0.60;;
22571;SDS011;11452;53.368;14.658;2023-08-08T13:44:05;0.63;;;0.50;;
22571;SDS011;11452;53.368;14.658;2023-08-08T13:49:11;0.97;;;0.50;;
22571;SDS011;11452;53.368;14.658;2023-08-08T13:54:17;0.73;;;0.70;;
22571;SDS011;11452;53.368;14.658;2023-08-08T13:59:23;1.07;;;0.50;;
22571;SDS011;11452;53.368;14.658;2023-08-08T14:04:30;1.17;;;0.60;;
22571;SDS011;11452;53.368;14.658;2023-08-08T14:09:36;1.30;;;0.80;;
22571;SDS011;11452;53.368;14.658;2023-08-08T14:14:42;2.37;;;0.73;;
22571;SDS011;11452;53.368;14.658;2023-08-08T14:19:48;1.07;;;0.70;;
22571;SDS011;11452;53.368;14.658;2023-08-08T14:24:53;0.73;;;0.73;;
22571;SDS011;11452;53.368;14.658;2023-08-08T14:29:59;1.37;;;0.70;;
22571;SDS011;11452;53.368;14.658;2023-08-08T14:35:08;1.00;;;0.70;;
22571;SDS011;11452;53.368;14.658;2023-08-08T14:40:14;0.67;;;0.67;;
22571;SDS011;11452;53.368;14.658;2023-08-08T14:45:20;2.40;;;0.70;;
22571;SDS011;11452;53.368;14.658;2023-08-08T14:50:25;0.80;;;0.70;;
22571;SDS011;11452;53.368;14.658;2023-08-08T14:55:31;1.13;;;1.03;;
22571;SDS011;11452;53.368;14.658;2023-08-08T15:00:37;1.20;;;1.10;;
22571;SDS011;11452;53.368;14.658;2023-08-08T15:05:43;2.30;;;0.90;;
22571;SDS011;11452;53.368;14.658;2023-08-08T15:10:49;2.07;;;0.70;;
22571;SDS011;11452;53.368;14.658;2023-08-08T15:15:55;1.47;;;0.57;;
22571;SDS011;11452;53.368;14.658;2023-08-08T15:21:01;1.67;;;0.60;;
22571;SDS011;11452;53.368;14.658;2023-08-08T15:26:07;1.93;;;0.60;;
22571;SDS011;11452;53.368;14.658;2023-08-08T15:31:13;2.10;;;0.67;;
22571;SDS011;11452;53.368;14.658;2023-08-08T15:36:20;1.67;;;0.40;;
22571;SDS011;11452;53.368;14.658;2023-08-08T15:41:27;1.67;;;0.73;;
22571;SDS011;11452;53.368;14.658;2023-08-08T15:46:32;1.07;;;0.80;;
22571;SDS011;11452;53.368;14.658;2023-08-08T15:51:41;0.40;;;0.40;;
22571;SDS011;11452;53.368;14.658;2023-08-08T15:56:49;0.77;;;0.70;;
22571;SDS011;11452;53.368;14.658;2023-08-08T16:01:55;1.23;;;0.53;;
22571;SDS011;11452;53.368;14.658;2023-08-08T16:07:01;1.50;;;0.63;;
22571;SDS011;11452;53.368;14.658;2023-08-08T16:12:08;0.50;;;0.50;;
22571;SDS011;11452;53.368;14.658;2023-08-08T16:17:14;3.00;;;1.00;;
22571;SDS011;11452;53.368;14.658;2023-08-08T16:22:19;1.80;;;0.70;;
22571;SDS011;11452;53.368;14.658;2023-08-08T16:27:25;0.93;;;0.70;;
22571;SDS011;11452;53.368;14.658;2023-08-08T16:32:31;0.97;;;0.83;;
22571;SDS011;11452;53.368;14.658;2023-08-08T16:37:37;0.77;;;0.63;;
22571;SDS011;11452;53.368;14.658;2023-08-08T16:42:42;0.70;;;0.70;;
22571;SDS011;11452;53.368;14.658;2023-08-08T16:47:48;0.67;;;0.50;;
22571;SDS011;11452;53.368;14.658;2023-08-08T16:52:54;1.27;;;0.80;;
22571;SDS011;11452;53.368;14.658;2023-08-08T16:58:00;1.90;;;0.80;;
22571;SDS011;11452;53.368;14.658;2023-08-08T17:03:07;1.87;;;0.83;;
22571;SDS011;11452;53.368;14.658;2023-08-08T17:08:13;2.30;;;0.60;;
22571;SDS011;11452;53.368;14.658;2023-08-08T17:13:21;0.70;;;0.60;;
22571;SDS011;11452;53.368;14.658;2023-08-08T17:18:27;2.23;;;0.83;;
22571;SDS011;11452;53.368;14.658;2023-08-08T17:23:33;0.93;;;0.60;;
22571;SDS011;11452;53.368;14.658;2023-08-08T17:28:40;1.17;;;0.97;;
22571;SDS011;11452;53.368;14.658;2023-08-08T17:33:46;1.07;;;0.60;;
22571;SDS011;11452;53.368;14.658;2023-08-08T17:38:52;0.87;;;0.63;;
22571;SDS011;11452;53.368;14.658;2023-08-08T17:43:58;1.13;;;0.80;;
22571;SDS011;11452;53.368;14.658;2023-08-08T17:49:04;1.17;;;0.63;;
22571;SDS011;11452;53.368;14.658;2023-08-08T17:54:10;0.70;;;0.70;;
22571;SDS011;11452;53.368;14.658;2023-08-08T17:59:16;1.03;;;0.93;;
22571;SDS011;11452;53.368;14.658;2023-08-08T18:04:22;2.10;;;0.70;;
22571;SDS011;11452;53.368;14.658;2023-08-08T18:09:28;2.10;;;0.63;;
22571;SDS011;11452;53.368;14.658;2023-08-08T18:14:34;1.33;;;0.60;;
22571;SDS011;11452;53.368;14.658;2023-08-08T18:19:39;1.37;;;0.60;;
22571;SDS011;11452;53.368;14.658;2023-08-08T18:24:45;0.97;;;0.70;;
22571;SDS011;11452;53.368;14.658;2023-08-08T18:29:51;1.13;;;0.83;;
22571;SDS011;11452;53.368;14.658;2023-08-08T18:34:57;1.20;;;0.70;;
22571;SDS011;11452;53.368;14.658;2023-08-08T18:40:02;1.27;;;0.87;;
22571;SDS011;11452;53.368;14.658;2023-08-08T18:45:10;1.47;;;1.10;;
22571;SDS011;11452;53.368;14.658;2023-08-08T18:50:16;1.03;;;0.93;;
22571;SDS011;11452;53.368;14.658;2023-08-08T18:55:22;1.97;;;1.10;;
22571;SDS011;11452;53.368;14.658;2023-08-08T19:00:29;1.00;;;0.90;;
22571;SDS011;11452;53.368;14.658;2023-08-08T19:05:34;1.53;;;1.10;;
22571;SDS011;11452;53.368;14.658;2023-08-08T19:10:40;2.00;;;0.90;;
22571;SDS011;11452;53.368;14.658;2023-08-08T19:15:46;1.17;;;0.93;;
22571;SDS011;11452;53.368;14.658;2023-08-08T19:20:51;1.67;;;0.87;;
22571;SDS011;11452;53.368;14.658;2023-08-08T19:25:58;1.60;;;1.50;;
22571;SDS011;11452;53.368;14.658;2023-08-08T19:31:04;1.87;;;1.40;;
22571;SDS011;11452;53.368;14.658;2023-08-08T19:36:10;1.17;;;0.93;;
22571;SDS011;11452;53.368;14.658;2023-08-08T19:41:16;1.40;;;1.10;;
22571;SDS011;11452;53.368;14.658;2023-08-08T19:46:22;1.50;;;0.90;;
22571;SDS011;11452;53.368;14.658;2023-08-08T19:51:28;1.03;;;1.00;;
22571;SDS011;11452;53.368;14.658;2023-08-08T19:56:35;1.80;;;1.10;;
22571;SDS011;11452;53.368;14.658;2023-08-08T20:01:43;1.20;;;1.10;;
22571;SDS011;11452;53.368;14.658;2023-08-08T20:06:49;1.40;;;1.07;;
22571;SDS011;11452;53.368;14.658;2023-08-08T20:11:55;3.63;;;1.37;;
22571;SDS011;11452;53.368;14.658;2023-08-08T20:17:01;1.57;;;1.00;;
22571;SDS011;11452;53.368;14.658;2023-08-08T20:22:07;1.67;;;1.00;;
22571;SDS011;11452;53.368;14.658;2023-08-08T20:27:13;1.43;;;0.90;;
22571;SDS011;11452;53.368;14.658;2023-08-08T20:32:19;2.07;;;1.37;;
22571;SDS011;11452;53.368;14.658;2023-08-08T20:37:25;1.00;;;0.90;;
22571;SDS011;11452;53.368;14.658;2023-08-08T20:42:31;1.17;;;1.00;;
22571;SDS011;11452;53.368;14.658;2023-08-08T20:47:37;1.90;;;1.17;;
22571;SDS011;11452;53.368;14.658;2023-08-08T20:52:43;1.30;;;0.90;;
22571;SDS011;11452;53.368;14.658;2023-08-08T20:57:49;1.83;;;1.10;;
22571;SDS011;11452;53.368;14.658;2023-08-08T21:02:55;1.63;;;0.80;;
22571;SDS011;11452;53.368;14.658;2023-08-08T21:08:01;1.03;;;0.93;;
22571;SDS011;11452;53.368;14.658;2023-08-08T21:13:07;1.20;;;1.10;;
22571;SDS011;11452;53.368;14.658;2023-08-08T21:18:13;1.70;;;0.90;;
22571;SDS011;11452;53.368;14.658;2023-08-08T21:23:19;3.43;;;1.10;;
22571;SDS011;11452;53.368;14.658;2023-08-08T21:28:24;1.77;;;1.17;;
22571;SDS011;11452;53.368;14.658;2023-08-08T21:33:32;1.43;;;1.07;;
22571;SDS011;11452;53.368;14.658;2023-08-08T21:38:38;2.67;;;1.00;;
22571;SDS011;11452;53.368;14.658;2023-08-08T21:43:44;2.37;;;1.20;;
22571;SDS011;11452;53.368;14.658;2023-08-08T21:48:49;2.07;;;1.23;;
22571;SDS011;11452;53.368;14.658;2023-08-08T21:53:55;1.90;;;1.10;;
22571;SDS011;11452;53.368;14.658;2023-08-08T21:59:01;2.40;;;1.30;;
22571;SDS011;11452;53.368;14.658;2023-08-08T22:04:07;1.20;;;0.90;;
22571;SDS011;11452;53.368;14.658;2023-08-08T22:09:13;1.83;;;1.40;;
22571;SDS011;11452;53.368;14.658;2023-08-08T22:14:19;1.83;;;1.10;;
22571;SDS011;11452;53.368;14.658;2023-08-08T22:19:26;3.87;;;1.30;;
22571;SDS011;11452;53.368;14.658;2023-08-08T22:24:31;1.13;;;1.00;;
22571;SDS011;11452;53.368;14.658;2023-08-08T22:29:37;1.93;;;1.17;;
22571;SDS011;11452;53.368;14.658;2023-08-08T22:34:43;3.33;;;1.17;;
22571;SDS011;11452;53.368;14.658;2023-08-08T22:39:49;2.67;;;1.30;;
22571;SDS011;11452;53.368;14.658;2023-08-08T22:44:55;1.43;;;1.33;;
22571;SDS011;11452;53.368;14.658;2023-08-08T22:50:00;2.23;;;0.90;;
22571;SDS011;11452;53.368;14.658;2023-08-08T22:55:07;1.20;;;1.10;;
22571;SDS011;11452;53.368;14.658;2023-08-08T23:00:13;2.73;;;1.40;;
22571;SDS011;11452;53.368;14.658;2023-08-08T23:05:19;1.00;;;0.80;;
22571;SDS011;11452;53.368;14.658;2023-08-08T23:10:25;2.70;;;1.17;;
22571;SDS011;11452;53.368;14.658;2023-08-08T23:15:31;2.03;;;1.10;;
22571;SDS011;11452;53.368;14.658;2023-08-08T23:20:36;1.87;;;0.90;;
22571;SDS011;11452;53.368;14.658;2023-08-08T23:25:42;3.57;;;1.30;;
22571;SDS011;11452;53.368;14.658;2023-08-08T23:30:48;2.17;;;1.40;;
22571;SDS011;11452;53.368;14.658;2023-08-08T23:35:54;1.97;;;1.20;;
22571;SDS011;11452;53.368;14.658;2023-08-08T23:41:00;1.37;;;1.27;;
22571;SDS011;11452;53.368;14.658;2023-08-08T23:46:07;1.30;;;1.17;;
22571;SDS011;11452;53.368;14.658;2023-08-08T23:51:13;2.73;;;1.10;;
22571;SDS011;11452;53.368;14.658;2023-08-08T23:56:18;2.27;;;0.93;;
